createdAt,value
2023-04-16T00:00:24.934Z,26.98
2023-04-16T00:01:24.943Z,26.71
2023-04-16T00:02:24.071Z,25.39
2023-04-16T00:03:25.092Z,26.62
2023-04-16T00:04:25.165Z,27.67
2023-04-16T00:05:24.903Z,27.20
2023-04-16T00:06:23.901Z,26.99
2023-04-16T00:07:24.898Z,26.58
2023-04-16T00:08:23.900Z,26.52
2023-04-16T00:09:24.899Z,25.72
2023-04-16T00:10:24.916Z,26.86
2023-04-16T00:11:24.907Z,27.30
2023-04-16T00:12:24.898Z,26.81
2023-04-16T00:13:25.152Z,26.66
2023-04-16T00:14:24.939Z,26.25
2023-04-16T00:15:24.904Z,27.66
2023-04-16T00:16:24.911Z,27.39
2023-04-16T00:17:24.906Z,25.88
2023-04-16T00:18:24.904Z,28.12
2023-04-16T00:19:23.935Z,25.21
2023-04-16T00:20:23.907Z,28.40
2023-04-16T00:21:23.909Z,29.23
2023-04-16T00:22:23.913Z,27.72
2023-04-16T00:23:23.914Z,27.72
2023-04-16T00:24:24.917Z,27.70
2023-04-16T00:25:23.906Z,27.75
2023-04-16T00:26:24.953Z,27.48
2023-04-16T00:27:24.914Z,27.11
2023-04-16T00:28:24.896Z,27.63
2023-04-16T00:29:24.897Z,26.18
2023-04-16T00:30:24.950Z,27.42
2023-04-16T00:31:24.992Z,27.47
2023-04-16T00:32:25.007Z,25.00
2023-04-16T00:33:24.920Z,27.11
2023-04-16T00:34:24.906Z,25.48
2023-04-16T00:35:23.937Z,26.38
2023-04-16T00:36:24.906Z,26.62
2023-04-16T00:37:24.931Z,27.28
2023-04-16T00:38:23.915Z,27.68
2023-04-16T00:39:23.915Z,28.10
2023-04-16T00:40:25.515Z,25.63
2023-04-16T00:41:24.900Z,27.35
2023-04-16T00:42:23.888Z,25.60
2023-04-16T00:43:23.900Z,25.75
2023-04-16T00:44:24.885Z,26.15
2023-04-16T00:45:23.897Z,25.46
2023-04-16T00:46:24.090Z,25.83
2023-04-16T00:47:23.900Z,25.95
2023-04-16T00:48:24.899Z,26.77
2023-04-16T00:49:24.919Z,26.93
2023-04-16T00:50:24.890Z,28.04
2023-04-16T00:51:24.916Z,26.75
2023-04-16T00:52:24.897Z,27.81
2023-04-16T00:53:23.910Z,26.28
2023-04-16T00:54:24.890Z,27.41
2023-04-16T00:55:24.907Z,27.81
2023-04-16T00:56:24.906Z,25.25
2023-04-16T00:57:23.994Z,26.34
2023-04-16T00:58:23.902Z,25.12
2023-04-16T00:59:24.903Z,25.13
2023-04-16T01:00:24.137Z,27.21
2023-04-16T01:01:24.001Z,26.22
2023-04-16T01:02:25.094Z,25.69
2023-04-16T01:03:24.083Z,27.11
2023-04-16T01:04:24.019Z,26.38
2023-04-16T01:05:24.951Z,26.78
2023-04-16T01:06:23.939Z,25.89
2023-04-16T01:07:23.924Z,26.12
2023-04-16T01:08:23.905Z,27.14
2023-04-16T01:09:24.914Z,26.12
2023-04-16T01:10:23.909Z,26.92
2023-04-16T01:11:24.895Z,26.65
2023-04-16T01:12:24.911Z,26.63
2023-04-16T01:13:24.913Z,25.14
2023-04-16T01:14:24.906Z,26.43
2023-04-16T01:15:24.934Z,26.37
2023-04-16T01:16:24.959Z,25.47
2023-04-16T01:17:24.972Z,26.78
2023-04-16T01:18:23.938Z,26.44
2023-04-16T01:19:24.936Z,27.40
2023-04-16T01:20:23.919Z,26.18
2023-04-16T01:21:23.901Z,25.24
2023-04-16T01:22:23.908Z,25.79
2023-04-16T01:23:24.903Z,26.89
2023-04-16T01:24:23.907Z,26.74
2023-04-16T01:25:23.899Z,27.03
2023-04-16T01:26:24.889Z,26.95
2023-04-16T01:27:24.906Z,26.71
2023-04-16T01:28:24.903Z,27.04
2023-04-16T01:29:24.878Z,26.87
2023-04-16T01:30:24.891Z,26.93
2023-04-16T01:31:24.903Z,27.70
2023-04-16T01:32:24.885Z,26.25
2023-04-16T01:33:24.849Z,26.16
2023-04-16T01:34:24.880Z,26.56
2023-04-16T01:35:23.850Z,27.60
2023-04-16T01:36:24.856Z,25.93
2023-04-16T01:37:23.852Z,26.61
2023-04-16T01:38:24.860Z,25.79
2023-04-16T01:39:24.872Z,25.42
2023-04-16T01:40:24.837Z,25.67
2023-04-16T01:41:24.841Z,25.92
2023-04-16T01:42:24.858Z,27.47
2023-04-16T01:43:23.821Z,26.86
2023-04-16T01:44:23.824Z,25.75
2023-04-16T01:45:24.831Z,27.06
2023-04-16T01:46:23.853Z,26.24
2023-04-16T01:47:24.884Z,28.05
2023-04-16T01:48:23.825Z,26.47
2023-04-16T01:49:24.819Z,27.54
2023-04-16T01:50:23.853Z,26.60
2023-04-16T01:51:23.841Z,28.06
2023-04-16T01:52:23.813Z,26.10
2023-04-16T01:53:23.805Z,27.41
2023-04-16T01:54:24.814Z,25.80
2023-04-16T01:55:24.789Z,28.35
2023-04-16T01:56:24.804Z,25.55
2023-04-16T01:57:24.800Z,26.30
2023-04-16T01:58:24.775Z,28.12
2023-04-16T01:59:24.779Z,27.85
2023-04-16T02:00:23.775Z,27.19
2023-04-16T02:01:24.953Z,26.45
2023-04-16T02:02:24.865Z,25.59
2023-04-16T02:03:23.916Z,27.39
2023-04-16T02:04:24.774Z,27.14
2023-04-16T02:05:24.761Z,27.23
2023-04-16T02:06:24.863Z,27.10
2023-04-16T02:07:23.740Z,27.04
2023-04-16T02:08:24.754Z,27.12
2023-04-16T02:09:24.763Z,26.11
2023-04-16T02:10:24.755Z,25.79
2023-04-16T02:11:24.779Z,25.00
2023-04-16T02:12:24.727Z,26.85
2023-04-16T02:13:24.724Z,27.37
2023-04-16T02:14:24.736Z,26.41
2023-04-16T02:15:24.723Z,27.41
2023-04-16T02:16:24.828Z,27.19
2023-04-16T02:17:24.739Z,27.51
2023-04-16T02:18:23.741Z,26.03
2023-04-16T02:19:23.730Z,25.52
2023-04-16T02:20:24.719Z,26.57
2023-04-16T02:21:23.724Z,27.64
2023-04-16T02:22:23.865Z,27.48
2023-04-16T02:23:24.760Z,26.03
2023-04-16T02:24:24.753Z,25.10
2023-04-16T02:25:24.768Z,27.25
2023-04-16T02:26:24.778Z,26.49
2023-04-16T02:27:23.780Z,27.57
2023-04-16T02:28:24.798Z,27.52
2023-04-16T02:29:24.817Z,27.55
2023-04-16T02:30:23.814Z,27.43
2023-04-16T02:31:24.867Z,26.90
2023-04-16T02:32:23.902Z,27.26
2023-04-16T02:33:23.821Z,27.66
2023-04-16T02:34:24.847Z,25.72
2023-04-16T02:35:23.865Z,26.95
2023-04-16T02:36:24.877Z,26.25
2023-04-16T02:37:24.894Z,27.25
2023-04-16T02:38:24.990Z,27.84
2023-04-16T02:39:24.879Z,26.41
2023-04-16T02:40:23.888Z,26.07
2023-04-16T02:41:24.908Z,26.95
2023-04-16T02:42:23.890Z,28.25
2023-04-16T02:43:23.903Z,28.02
2023-04-16T02:44:24.903Z,27.30
2023-04-16T02:45:24.894Z,27.73
2023-04-16T02:46:24.065Z,26.79
2023-04-16T02:47:23.955Z,26.91
2023-04-16T02:48:24.907Z,25.87
2023-04-16T02:49:24.916Z,26.33
2023-04-16T02:50:23.903Z,26.11
2023-04-16T02:51:24.918Z,25.53
2023-04-16T02:52:24.957Z,28.45
2023-04-16T02:53:24.937Z,25.94
2023-04-16T02:54:24.971Z,27.29
2023-04-16T02:55:23.948Z,26.01
2023-04-16T02:56:24.947Z,25.00
2023-04-16T02:57:23.960Z,26.85
2023-04-16T02:58:24.981Z,27.15
2023-04-16T02:59:23.957Z,26.23
2023-04-16T03:00:23.961Z,27.52
2023-04-16T03:01:25.004Z,27.61
2023-04-16T03:02:25.035Z,27.44
2023-04-16T03:03:25.037Z,26.52
2023-04-16T03:04:25.014Z,27.26
2023-04-16T03:05:24.980Z,25.77
2023-04-16T03:06:23.987Z,26.61
2023-04-16T03:07:23.975Z,27.88
2023-04-16T03:08:23.982Z,27.31
2023-04-16T03:09:23.974Z,27.12
2023-04-16T03:10:25.011Z,26.18
2023-04-16T03:11:25.002Z,26.79
2023-04-16T03:12:24.994Z,28.25
2023-04-16T03:13:25.002Z,26.51
2023-04-16T03:14:23.991Z,26.30
2023-04-16T03:15:25.018Z,25.93
2023-04-16T03:16:24.128Z,26.17
2023-04-16T03:17:25.004Z,25.36
2023-04-16T03:18:25.013Z,25.58
2023-04-16T03:19:23.994Z,27.04
2023-04-16T03:20:24.995Z,26.75
2023-04-16T03:21:24.009Z,25.33
2023-04-16T03:22:23.993Z,26.92
2023-04-16T03:23:24.974Z,25.99
2023-04-16T03:24:24.989Z,29.07
2023-04-16T03:25:24.989Z,25.21
2023-04-16T03:26:25.020Z,27.67
2023-04-16T03:27:24.994Z,26.14
2023-04-16T03:28:24.970Z,25.30
2023-04-16T03:29:23.964Z,26.24
2023-04-16T03:30:24.975Z,25.62
2023-04-16T03:31:25.059Z,25.41
2023-04-16T03:32:25.044Z,26.07
2023-04-16T03:33:25.000Z,26.72
2023-04-16T03:34:23.981Z,27.13
2023-04-16T03:35:23.993Z,26.10
2023-04-16T03:36:24.978Z,26.50
2023-04-16T03:37:23.982Z,25.54
2023-04-16T03:38:24.983Z,25.36
2023-04-16T03:39:23.963Z,26.74
2023-04-16T03:40:24.985Z,26.32
2023-04-16T03:41:23.987Z,26.10
2023-04-16T03:42:24.983Z,25.95
2023-04-16T03:43:24.963Z,27.78
2023-04-16T03:44:24.958Z,27.65
2023-04-16T03:45:24.977Z,26.99
2023-04-16T03:46:25.047Z,25.54
2023-04-16T03:47:25.015Z,26.60
2023-04-16T03:48:24.094Z,28.16
2023-04-16T03:49:24.980Z,26.13
2023-04-16T03:50:23.964Z,27.44
2023-04-16T03:51:23.962Z,25.50
2023-04-16T03:52:23.966Z,27.93
2023-04-16T03:53:23.955Z,27.07
2023-04-16T03:54:24.970Z,26.60
2023-04-16T03:55:23.957Z,26.23
2023-04-16T03:56:24.958Z,28.16
2023-04-16T03:57:23.959Z,26.89
2023-04-16T03:58:23.971Z,27.42
2023-04-16T03:59:23.939Z,26.24
2023-04-16T04:00:24.958Z,26.77
2023-04-16T04:01:23.967Z,25.40
2023-04-16T04:02:25.319Z,26.88
2023-04-16T04:03:25.395Z,28.18
2023-04-16T04:04:25.131Z,26.55
2023-04-16T04:05:24.002Z,27.55
2023-04-16T04:06:25.005Z,25.95
2023-04-16T04:07:25.027Z,28.22
2023-04-16T04:08:24.043Z,27.09
2023-04-16T04:09:25.054Z,26.85
2023-04-16T04:10:25.066Z,27.19
2023-04-16T04:11:25.072Z,27.23
2023-04-16T04:12:25.114Z,26.03
2023-04-16T04:13:25.100Z,26.08
2023-04-16T04:14:24.144Z,26.52
2023-04-16T04:15:24.131Z,26.05
2023-04-16T04:16:25.252Z,26.44
2023-04-16T04:17:25.187Z,26.07
2023-04-16T04:18:24.179Z,25.04
2023-04-16T04:19:24.169Z,25.24
2023-04-16T04:20:25.175Z,26.00
2023-04-16T04:21:25.195Z,26.47
2023-04-16T04:22:25.226Z,26.16
2023-04-16T04:23:25.222Z,25.87
2023-04-16T04:24:25.203Z,25.39
2023-04-16T04:25:24.225Z,27.18
2023-04-16T04:26:24.306Z,25.87
2023-04-16T04:27:24.222Z,28.58
2023-04-16T04:28:25.234Z,26.15
2023-04-16T04:29:24.229Z,27.74
2023-04-16T04:30:25.233Z,28.45
2023-04-16T04:31:25.276Z,27.09
2023-04-16T04:32:25.259Z,25.75
2023-04-16T04:33:25.229Z,27.04
2023-04-16T04:34:25.240Z,27.49
2023-04-16T04:35:24.268Z,26.16
2023-04-16T04:36:24.234Z,27.97
2023-04-16T04:37:25.240Z,27.24
2023-04-16T04:38:25.294Z,27.06
2023-04-16T04:39:25.246Z,26.84
2023-04-16T04:40:25.254Z,26.70
2023-04-16T04:41:24.273Z,27.87
2023-04-16T04:42:24.280Z,25.67
2023-04-16T04:43:25.296Z,26.99
2023-04-16T04:44:25.303Z,26.26
2023-04-16T04:45:25.403Z,26.95
2023-04-16T04:46:24.400Z,26.87
2023-04-16T04:47:25.332Z,26.06
2023-04-16T04:48:25.326Z,26.13
2023-04-16T04:49:25.350Z,27.90
2023-04-16T04:50:24.390Z,28.03
2023-04-16T04:51:24.320Z,27.55
2023-04-16T04:52:26.077Z,27.34
2023-04-16T04:53:25.369Z,27.04
2023-04-16T04:54:25.341Z,26.89
2023-04-16T04:55:25.357Z,26.74
2023-04-16T04:56:25.342Z,26.88
2023-04-16T04:57:25.354Z,26.19
2023-04-16T04:58:24.382Z,27.50
2023-04-16T04:59:25.370Z,28.47
2023-04-16T05:00:25.383Z,26.82
2023-04-16T05:01:25.415Z,26.28
2023-04-16T05:02:24.498Z,28.55
2023-04-16T05:03:25.495Z,26.96
2023-04-16T05:04:25.416Z,26.19
2023-04-16T05:05:24.447Z,26.60
2023-04-16T05:06:24.464Z,26.35
2023-04-16T05:07:25.448Z,26.13
2023-04-16T05:08:24.472Z,27.15
2023-04-16T05:09:25.506Z,26.25
2023-04-16T05:10:25.486Z,25.00
2023-04-16T05:11:24.490Z,25.72
2023-04-16T05:12:25.522Z,26.57
2023-04-16T05:13:24.541Z,25.99
2023-04-16T05:14:25.525Z,25.79
2023-04-16T05:15:25.545Z,26.08
2023-04-16T05:16:25.572Z,27.10
2023-04-16T05:17:24.606Z,27.60
2023-04-16T05:18:24.613Z,26.32
2023-04-16T05:19:25.597Z,25.95
2023-04-16T05:20:24.619Z,26.76
2023-04-16T05:21:24.607Z,27.32
2023-04-16T05:22:24.620Z,27.79
2023-04-16T05:23:24.641Z,26.40
2023-04-16T05:24:25.640Z,27.34
2023-04-16T05:25:25.678Z,25.60
2023-04-16T05:26:25.681Z,26.35
2023-04-16T05:27:25.689Z,26.40
2023-04-16T05:28:24.703Z,26.35
2023-04-16T05:29:24.721Z,27.68
2023-04-16T05:30:24.737Z,26.18
2023-04-16T05:31:25.813Z,25.92
2023-04-16T05:32:25.823Z,26.71
2023-04-16T05:33:24.784Z,27.47
2023-04-16T05:34:25.834Z,27.23
2023-04-16T05:35:25.835Z,26.43
2023-04-16T05:36:25.825Z,26.41
2023-04-16T05:37:25.835Z,25.76
2023-04-16T05:38:25.845Z,27.66
2023-04-16T05:39:25.856Z,26.91
2023-04-16T05:40:25.900Z,27.44
2023-04-16T05:41:25.881Z,26.07
2023-04-16T05:42:25.903Z,25.03
2023-04-16T05:43:25.894Z,25.81
2023-04-16T05:44:25.911Z,26.37
2023-04-16T05:45:27.973Z,26.35
2023-04-16T05:46:25.982Z,28.60
2023-04-16T05:47:25.963Z,28.37
2023-04-16T05:48:25.917Z,28.05
2023-04-16T05:49:25.906Z,25.84
2023-04-16T05:50:25.924Z,27.16
2023-04-16T05:51:25.903Z,25.92
2023-04-16T05:52:25.893Z,25.84
2023-04-16T05:53:25.895Z,26.64
2023-04-16T05:54:24.866Z,26.66
2023-04-16T05:55:25.850Z,27.66
2023-04-16T05:56:25.852Z,26.83
2023-04-16T05:57:25.859Z,28.53
2023-04-16T05:58:25.890Z,27.45
2023-04-16T05:59:25.871Z,26.47
2023-04-16T06:00:25.812Z,29.01
2023-04-16T06:01:25.821Z,28.16
2023-04-16T06:02:24.928Z,26.54
2023-04-16T06:03:25.867Z,28.17
2023-04-16T06:04:24.800Z,25.45
2023-04-16T06:05:24.837Z,27.19
2023-04-16T06:06:25.797Z,26.60
2023-04-16T06:07:24.769Z,26.12
2023-04-16T06:08:25.775Z,26.88
2023-04-16T06:09:25.759Z,26.92
2023-04-16T06:10:24.754Z,26.09
2023-04-16T06:11:24.804Z,27.22
2023-04-16T06:12:25.736Z,28.20
2023-04-16T06:13:25.758Z,27.29
2023-04-16T06:14:24.734Z,27.19
2023-04-16T06:15:24.731Z,28.41
2023-04-16T06:16:25.900Z,27.22
2023-04-16T06:17:25.721Z,27.75
2023-04-16T06:18:25.731Z,27.08
2023-04-16T06:19:24.716Z,27.41
2023-04-16T06:20:25.697Z,26.47
2023-04-16T06:21:25.708Z,26.96
2023-04-16T06:22:25.694Z,27.52
2023-04-16T06:23:25.680Z,27.46
2023-04-16T06:24:25.671Z,27.99
2023-04-16T06:25:25.671Z,26.98
2023-04-16T06:26:25.666Z,26.18
2023-04-16T06:27:24.644Z,25.08
2023-04-16T06:28:24.647Z,26.45
2023-04-16T06:29:33.687Z,27.89
2023-04-16T06:30:25.654Z,28.12
2023-04-16T06:31:24.649Z,28.34
2023-04-16T06:32:25.657Z,28.51
2023-04-16T06:33:25.623Z,27.48
2023-04-16T06:34:24.601Z,27.53
2023-04-16T06:35:24.588Z,27.78
2023-04-16T06:36:24.581Z,27.89
2023-04-16T06:37:24.572Z,28.03
2023-04-16T06:38:25.605Z,26.67
2023-04-16T06:39:25.573Z,27.24
2023-04-16T06:40:25.560Z,26.96
2023-04-16T06:41:24.541Z,25.69
2023-04-16T06:42:25.564Z,25.85
2023-04-16T06:43:25.540Z,26.45
2023-04-16T06:44:25.553Z,26.12
2023-04-16T06:45:25.525Z,26.53
2023-04-16T06:46:24.573Z,25.82
2023-04-16T06:47:25.612Z,26.59
2023-04-16T06:48:24.501Z,25.78
2023-04-16T06:49:25.557Z,26.13
2023-04-16T06:50:24.573Z,26.08
2023-04-16T06:51:25.593Z,28.82
2023-04-16T06:52:24.628Z,26.43
2023-04-16T06:53:25.653Z,26.45
2023-04-16T06:54:25.713Z,26.78
2023-04-16T06:55:24.724Z,26.05
2023-04-16T06:56:25.758Z,26.47
2023-04-16T06:57:25.790Z,26.38
2023-04-16T06:58:25.833Z,27.57
2023-04-16T06:59:25.927Z,26.73
2023-04-16T07:00:25.948Z,28.50
2023-04-16T07:01:26.120Z,26.71
2023-04-16T07:02:25.073Z,25.81
2023-04-16T07:03:26.122Z,27.26
2023-04-16T07:04:25.097Z,25.21
2023-04-16T07:05:26.067Z,27.01
2023-04-16T07:06:25.113Z,27.34
2023-04-16T07:07:25.143Z,26.21
2023-04-16T07:08:25.186Z,27.51
2023-04-16T07:09:26.245Z,26.16
2023-04-16T07:10:25.303Z,25.78
2023-04-16T07:11:26.285Z,25.33
2023-04-16T07:12:26.309Z,26.33
2023-04-16T07:13:26.356Z,27.15
2023-04-16T07:14:26.375Z,26.63
2023-04-16T07:15:26.406Z,27.57
2023-04-16T07:16:26.438Z,27.66
2023-04-16T07:17:25.467Z,27.29
2023-04-16T07:18:25.493Z,25.70
2023-04-16T07:19:25.515Z,27.28
2023-04-16T07:20:25.564Z,27.23
2023-04-16T07:21:25.596Z,26.30
2023-04-16T07:22:25.628Z,25.23
2023-04-16T07:23:25.665Z,27.53
2023-04-16T07:24:26.688Z,25.67
2023-04-16T07:25:25.717Z,26.82
2023-04-16T07:26:26.790Z,26.58
2023-04-16T07:27:26.850Z,27.74
2023-04-16T07:28:25.840Z,26.29
2023-04-16T07:29:26.852Z,27.00
2023-04-16T07:30:25.879Z,25.52
2023-04-16T07:31:25.951Z,25.80
2023-04-16T07:32:26.960Z,26.28
2023-04-16T07:33:25.991Z,25.00
2023-04-16T07:34:27.014Z,25.96
2023-04-16T07:35:27.047Z,26.90
2023-04-16T07:36:27.067Z,26.49
2023-04-16T07:37:26.101Z,26.74
2023-04-16T07:38:27.124Z,25.75
2023-04-16T07:39:26.145Z,27.02
2023-04-16T07:40:27.160Z,27.90
2023-04-16T07:41:27.173Z,26.31
2023-04-16T07:42:26.231Z,27.59
2023-04-16T07:43:27.229Z,26.80
2023-04-16T07:44:27.265Z,28.29
2023-04-16T07:45:27.297Z,27.76
2023-04-16T07:46:30.539Z,26.15
2023-04-16T07:47:27.333Z,26.41
2023-04-16T07:48:27.272Z,26.81
2023-04-16T07:49:26.269Z,26.99
2023-04-16T07:50:27.262Z,27.34
2023-04-16T07:51:27.255Z,27.74
2023-04-16T07:52:27.256Z,29.33
2023-04-16T07:53:26.228Z,29.85
2023-04-16T07:54:28.921Z,28.15
2023-04-16T07:55:27.237Z,31.23
2023-04-16T07:56:27.226Z,32.53
2023-04-16T07:57:27.225Z,29.61
2023-04-16T07:58:26.226Z,30.16
2023-04-16T07:59:27.717Z,28.52
2023-04-16T08:00:26.196Z,28.72
2023-04-16T08:01:27.187Z,27.71
2023-04-16T08:02:27.231Z,28.06
2023-04-16T08:03:27.323Z,28.24
2023-04-16T08:04:26.671Z,27.65
2023-04-16T08:05:26.264Z,28.21
2023-04-16T08:06:27.156Z,26.45
2023-04-16T08:07:27.148Z,26.48
2023-04-16T08:08:26.147Z,26.26
2023-04-16T08:09:27.141Z,26.64
2023-04-16T08:10:27.149Z,26.78
2023-04-16T08:11:26.123Z,27.04
2023-04-16T08:12:26.146Z,25.42
2023-04-16T08:13:26.106Z,27.72
2023-04-16T08:14:27.123Z,26.45
2023-04-16T08:15:26.122Z,26.95
2023-04-16T08:16:27.103Z,26.05
2023-04-16T08:17:26.193Z,25.75
2023-04-16T08:18:27.088Z,26.76
2023-04-16T08:19:26.078Z,26.99
2023-04-16T08:20:27.067Z,25.94
2023-04-16T08:21:26.063Z,25.82
2023-04-16T08:22:27.062Z,26.83
2023-04-16T08:23:27.067Z,25.74
2023-04-16T08:24:27.044Z,27.01
2023-04-16T08:25:26.049Z,26.63
2023-04-16T08:26:27.057Z,26.09
2023-04-16T08:27:27.051Z,26.13
2023-04-16T08:28:26.023Z,25.86
2023-04-16T08:29:27.028Z,26.72
2023-04-16T08:30:27.045Z,27.64
2023-04-16T08:31:27.062Z,25.87
2023-04-16T08:32:27.058Z,27.04
2023-04-16T08:33:27.018Z,25.63
2023-04-16T08:34:26.008Z,25.75
2023-04-16T08:35:26.056Z,26.55
2023-04-16T08:36:26.065Z,28.22
2023-04-16T08:37:27.075Z,27.04
2023-04-16T08:38:27.144Z,27.14
2023-04-16T08:39:26.109Z,27.06
2023-04-16T08:40:27.159Z,27.11
2023-04-16T08:41:27.146Z,25.63
2023-04-16T08:42:26.165Z,26.28
2023-04-16T08:43:26.189Z,26.73
2023-04-16T08:44:26.198Z,26.30
2023-04-16T08:45:27.243Z,25.31
2023-04-16T08:46:27.309Z,26.66
2023-04-16T08:47:27.323Z,27.40
2023-04-16T08:48:27.265Z,26.71
2023-04-16T08:49:27.300Z,25.70
2023-04-16T08:50:27.340Z,26.61
2023-04-16T08:51:27.318Z,26.71
2023-04-16T08:52:27.338Z,26.81
2023-04-16T08:53:26.348Z,26.07
2023-04-16T08:54:26.372Z,27.26
2023-04-16T08:55:27.429Z,27.36
2023-04-16T08:56:27.402Z,27.44
2023-04-16T08:57:26.431Z,27.28
2023-04-16T08:58:27.468Z,27.07
2023-04-16T08:59:26.468Z,27.30
2023-04-16T09:00:26.520Z,27.53
2023-04-16T09:01:27.530Z,26.84
2023-04-16T09:02:26.780Z,28.08
2023-04-16T09:03:27.674Z,27.15
2023-04-16T09:04:27.651Z,26.86
2023-04-16T09:05:27.604Z,27.38
2023-04-16T09:06:27.586Z,28.02
2023-04-16T09:07:26.674Z,28.17
2023-04-16T09:08:26.633Z,28.87
2023-04-16T09:09:26.653Z,27.64
2023-04-16T09:10:26.686Z,29.73
2023-04-16T09:11:27.674Z,28.15
2023-04-16T09:12:27.692Z,28.78
2023-04-16T09:13:27.721Z,28.80
2023-04-16T09:14:27.736Z,29.01
2023-04-16T09:15:26.782Z,27.51
2023-04-16T09:16:27.807Z,28.10
2023-04-16T09:17:26.825Z,27.44
2023-04-16T09:18:27.906Z,28.21
2023-04-16T09:19:26.790Z,28.73
2023-04-16T09:20:26.812Z,26.76
2023-04-16T09:21:26.822Z,28.41
2023-04-16T09:22:27.845Z,27.27
2023-04-16T09:23:26.860Z,29.97
2023-04-16T09:24:27.853Z,29.30
2023-04-16T09:25:27.867Z,27.73
2023-04-16T09:26:27.901Z,29.00
2023-04-16T09:27:27.897Z,29.30
2023-04-16T09:28:26.912Z,28.98
2023-04-16T09:29:27.933Z,29.03
2023-04-16T09:30:27.954Z,28.13
2023-04-16T09:31:28.032Z,29.30
2023-04-16T09:32:27.013Z,29.64
2023-04-16T09:33:26.986Z,29.56
2023-04-16T09:34:27.028Z,29.17
2023-04-16T09:35:27.020Z,29.31
2023-04-16T09:36:27.022Z,28.30
2023-04-16T09:37:27.036Z,29.26
2023-04-16T09:38:28.070Z,29.61
2023-04-16T09:39:28.076Z,29.29
2023-04-16T09:40:28.074Z,29.50
2023-04-16T09:41:28.084Z,29.35
2023-04-16T09:42:28.089Z,28.22
2023-04-16T09:43:28.124Z,29.91
2023-04-16T09:44:27.123Z,29.95
2023-04-16T09:45:27.131Z,30.47
2023-04-16T09:46:27.179Z,30.84
2023-04-16T09:47:27.204Z,28.20
2023-04-16T09:48:28.178Z,30.08
2023-04-16T09:49:27.184Z,29.13
2023-04-16T09:50:28.228Z,30.91
2023-04-16T09:51:28.204Z,28.77
2023-04-16T09:52:28.195Z,30.57
2023-04-16T09:53:28.232Z,29.86
2023-04-16T09:54:28.224Z,29.72
2023-04-16T09:55:28.229Z,30.08
2023-04-16T09:56:27.246Z,30.89
2023-04-16T09:57:28.229Z,29.95
2023-04-16T09:58:27.250Z,29.33
2023-04-16T09:59:27.256Z,29.34
2023-04-16T10:00:28.255Z,27.99
2023-04-16T10:01:28.308Z,29.81
2023-04-16T10:02:28.377Z,31.76
2023-04-16T10:03:28.409Z,28.22
2023-04-16T10:04:27.310Z,29.40
2023-04-16T10:05:27.289Z,30.14
2023-04-16T10:06:28.370Z,28.44
2023-04-16T10:07:28.321Z,28.17
2023-04-16T10:08:28.312Z,30.43
2023-04-16T10:09:28.327Z,28.61
2023-04-16T10:10:27.326Z,29.41
2023-04-16T10:11:28.352Z,29.72
2023-04-16T10:12:27.371Z,28.58
2023-04-16T10:13:27.344Z,28.68
2023-04-16T10:14:28.360Z,29.87
2023-04-16T10:15:28.390Z,30.48
2023-04-16T10:16:27.375Z,30.67
2023-04-16T10:17:28.405Z,30.93
2023-04-16T10:18:28.363Z,29.10
2023-04-16T10:19:28.385Z,29.74
2023-04-16T10:20:28.425Z,31.11
2023-04-16T10:21:28.396Z,30.16
2023-04-16T10:22:27.435Z,29.30
2023-04-16T10:23:28.418Z,28.91
2023-04-16T10:24:28.420Z,28.46
2023-04-16T10:25:28.433Z,30.57
2023-04-16T10:26:28.462Z,31.24
2023-04-16T10:27:27.458Z,30.31
2023-04-16T10:28:28.481Z,29.37
2023-04-16T10:29:27.501Z,30.71
2023-04-16T10:30:28.511Z,30.24
2023-04-16T10:31:27.581Z,31.65
2023-04-16T10:32:27.582Z,29.25
2023-04-16T10:33:28.542Z,29.37
2023-04-16T10:34:28.574Z,29.10
2023-04-16T10:35:28.601Z,29.21
2023-04-16T10:36:28.634Z,29.26
2023-04-16T10:37:27.643Z,30.43
2023-04-16T10:38:27.672Z,28.67
2023-04-16T10:39:28.679Z,29.51
2023-04-16T10:40:28.685Z,28.80
2023-04-16T10:41:28.704Z,29.27
2023-04-16T10:42:28.755Z,30.60
2023-04-16T10:43:28.797Z,29.89
2023-04-16T10:44:28.758Z,30.18
2023-04-16T10:45:28.756Z,28.56
2023-04-16T10:46:28.790Z,30.78
2023-04-16T10:47:27.777Z,29.79
2023-04-16T10:48:35.613Z,29.33
2023-04-16T10:49:29.088Z,29.61
2023-04-16T10:50:27.788Z,30.59
2023-04-16T10:51:27.799Z,31.34
2023-04-16T10:52:27.785Z,31.08
2023-04-16T10:53:28.751Z,29.93
2023-04-16T10:54:28.774Z,29.30
2023-04-16T10:55:28.758Z,29.64
2023-04-16T10:56:27.739Z,30.50
2023-04-16T10:57:28.711Z,31.05
2023-04-16T10:58:27.744Z,29.70
2023-04-16T10:59:28.704Z,28.75
2023-04-16T11:00:28.690Z,29.75
2023-04-16T11:01:28.744Z,32.40
2023-04-16T11:02:27.929Z,30.86
2023-04-16T11:03:27.866Z,28.33
2023-04-16T11:04:27.836Z,30.91
2023-04-16T11:05:27.671Z,30.46
2023-04-16T11:06:28.666Z,30.84
2023-04-16T11:07:28.648Z,30.24
2023-04-16T11:08:27.641Z,28.98
2023-04-16T11:09:28.647Z,29.19
2023-04-16T11:10:28.658Z,28.59
2023-04-16T11:11:28.626Z,29.74
2023-04-16T11:12:27.682Z,29.18
2023-04-16T11:13:28.626Z,29.72
2023-04-16T11:14:27.596Z,29.18
2023-04-16T11:15:28.600Z,30.31
2023-04-16T11:16:27.639Z,28.80
2023-04-16T11:17:28.603Z,28.84
2023-04-16T11:18:27.588Z,29.46
2023-04-16T11:19:28.576Z,29.27
2023-04-16T11:20:28.591Z,30.91
2023-04-16T11:21:28.545Z,29.47
2023-04-16T11:22:28.542Z,29.95
2023-04-16T11:23:28.538Z,29.69
2023-04-16T11:24:28.536Z,31.78
2023-04-16T11:25:28.517Z,29.79
2023-04-16T11:26:28.551Z,30.72
2023-04-16T11:27:28.498Z,31.92
2023-04-16T11:28:27.501Z,28.66
2023-04-16T11:29:28.588Z,31.22
2023-04-16T11:30:27.483Z,28.41
2023-04-16T11:31:28.472Z,32.49
2023-04-16T11:32:28.582Z,30.21
2023-04-16T11:33:27.469Z,31.37
2023-04-16T11:34:28.464Z,30.62
2023-04-16T11:35:28.471Z,31.04
2023-04-16T11:36:27.945Z,31.66
2023-04-16T11:37:28.433Z,31.20
2023-04-16T11:38:27.420Z,32.17
2023-04-16T11:39:28.448Z,30.59
2023-04-16T11:40:28.409Z,32.52
2023-04-16T11:41:28.425Z,31.09
2023-04-16T11:42:27.431Z,31.00
2023-04-16T11:43:27.382Z,31.74
2023-04-16T11:44:28.388Z,30.69
2023-04-16T11:45:27.387Z,31.37
2023-04-16T11:46:28.036Z,32.83
2023-04-16T11:47:28.415Z,32.43
2023-04-16T11:48:27.357Z,30.69
2023-04-16T11:49:28.370Z,30.46
2023-04-16T11:50:27.357Z,33.19
2023-04-16T11:51:27.332Z,31.08
2023-04-16T11:52:27.351Z,29.57
2023-04-16T11:53:28.306Z,30.08
2023-04-16T11:54:27.334Z,30.53
2023-04-16T11:55:27.296Z,31.76
2023-04-16T11:56:28.285Z,31.76
2023-04-16T11:57:28.296Z,32.96
2023-04-16T11:58:28.310Z,32.75
2023-04-16T11:59:27.271Z,30.52
2023-04-16T12:00:27.270Z,31.64
2023-04-16T12:01:28.275Z,32.10
2023-04-16T12:02:27.310Z,31.24
2023-04-16T12:03:27.353Z,32.07
2023-04-16T12:04:28.391Z,31.56
2023-04-16T12:05:28.260Z,31.10
2023-04-16T12:06:27.231Z,31.98
2023-04-16T12:07:28.222Z,31.32
2023-04-16T12:08:27.208Z,32.09
2023-04-16T12:09:27.248Z,33.01
2023-04-16T12:10:27.271Z,31.02
2023-04-16T12:11:28.270Z,30.19
2023-04-16T12:12:27.290Z,32.17
2023-04-16T12:13:27.196Z,32.39
2023-04-16T12:14:28.208Z,31.83
2023-04-16T12:15:28.166Z,31.91
2023-04-16T12:16:28.240Z,30.15
2023-04-16T12:17:27.189Z,31.73
2023-04-16T12:18:28.187Z,30.77
2023-04-16T12:19:28.150Z,31.49
2023-04-16T12:20:28.127Z,32.81
2023-04-16T12:21:27.135Z,33.48
2023-04-16T12:22:28.113Z,32.54
2023-04-16T12:23:28.143Z,29.45
2023-04-16T12:24:28.116Z,33.07
2023-04-16T12:25:28.093Z,33.75
2023-04-16T12:26:28.102Z,33.87
2023-04-16T12:27:27.086Z,32.04
2023-04-16T12:28:27.077Z,32.24
2023-04-16T12:29:28.127Z,32.34
2023-04-16T12:30:27.145Z,31.36
2023-04-16T12:31:27.178Z,32.35
2023-04-16T12:32:28.226Z,31.27
2023-04-16T12:33:28.334Z,32.24
2023-04-16T12:34:48.125Z,33.68
2023-04-16T12:35:28.307Z,33.94
2023-04-16T12:36:28.301Z,34.12
2023-04-16T12:37:28.285Z,35.14
2023-04-16T12:38:27.298Z,34.75
2023-04-16T12:39:28.288Z,34.53
2023-04-16T12:40:27.264Z,35.35
2023-04-16T12:41:27.248Z,35.15
2023-04-16T12:42:28.235Z,32.09
2023-04-16T12:43:27.229Z,33.09
2023-04-16T12:44:28.255Z,33.27
2023-04-16T12:45:28.218Z,32.20
2023-04-16T12:46:27.250Z,33.01
2023-04-16T12:47:28.252Z,34.88
2023-04-16T12:48:28.189Z,32.94
2023-04-16T12:49:28.197Z,30.83
2023-04-16T12:50:27.193Z,30.59
2023-04-16T12:51:27.171Z,31.99
2023-04-16T12:52:28.243Z,32.82